sensor_id;sensor_type;location;lat;lon;timestamp;P1;durP1;ratioP1;P2;durP2;ratioP2
8331;SDS011;4203;48.144;14.118;2023-02-12T00:01:09;28.60;;;18.73;;
8331;SDS011;4203;48.144;14.118;2023-02-12T00:03:38;28.80;;;17.70;;
8331;SDS011;4203;48.144;14.118;2023-02-12T00:06:06;28.87;;;18.47;;
8331;SDS011;4203;48.144;14.118;2023-02-12T00:08:35;27.40;;;16.83;;
8331;SDS011;4203;48.144;14.118;2023-02-12T00:11:06;29.47;;;17.10;;
8331;SDS011;4203;48.144;14.118;2023-02-12T00:13:36;24.93;;;17.27;;
8331;SDS011;4203;48.144;14.118;2023-02-12T00:16:05;30.10;;;18.63;;
8331;SDS011;4203;48.144;14.118;2023-02-12T00:18:33;34.23;;;19.43;;
8331;SDS011;4203;48.144;14.118;2023-02-12T00:21:01;29.27;;;19.37;;
8331;SDS011;4203;48.144;14.118;2023-02-12T00:23:30;32.23;;;19.40;;
8331;SDS011;4203;48.144;14.118;2023-02-12T00:25:57;31.20;;;19.20;;
8331;SDS011;4203;48.144;14.118;2023-02-12T00:28:25;30.70;;;20.43;;
8331;SDS011;4203;48.144;14.118;2023-02-12T00:30:53;34.93;;;21.27;;
8331;SDS011;4203;48.144;14.118;2023-02-12T00:33:21;31.53;;;20.87;;
8331;SDS011;4203;48.144;14.118;2023-02-12T00:35:54;32.30;;;21.07;;
8331;SDS011;4203;48.144;14.118;2023-02-12T00:38:22;32.07;;;20.97;;
8331;SDS011;4203;48.144;14.118;2023-02-12T00:40:49;36.10;;;23.00;;
8331;SDS011;4203;48.144;14.118;2023-02-12T00:43:17;37.67;;;22.37;;
8331;SDS011;4203;48.144;14.118;2023-02-12T00:45:44;37.83;;;23.30;;
8331;SDS011;4203;48.144;14.118;2023-02-12T00:48:14;37.70;;;21.83;;
8331;SDS011;4203;48.144;14.118;2023-02-12T00:50:43;35.23;;;21.43;;
8331;SDS011;4203;48.144;14.118;2023-02-12T00:53:12;35.97;;;21.97;;
8331;SDS011;4203;48.144;14.118;2023-02-12T00:55:40;35.47;;;22.30;;
8331;SDS011;4203;48.144;14.118;2023-02-12T00:58:07;38.50;;;22.90;;
8331;SDS011;4203;48.144;14.118;2023-02-12T01:00:35;37.33;;;23.23;;
8331;SDS011;4203;48.144;14.118;2023-02-12T01:03:02;36.93;;;23.43;;
8331;SDS011;4203;48.144;14.118;2023-02-12T01:05:31;36.33;;;22.57;;
8331;SDS011;4203;48.144;14.118;2023-02-12T01:07:59;40.90;;;22.73;;
8331;SDS011;4203;48.144;14.118;2023-02-12T01:10:27;38.17;;;23.93;;
8331;SDS011;4203;48.144;14.118;2023-02-12T01:12:54;38.27;;;23.83;;
8331;SDS011;4203;48.144;14.118;2023-02-12T01:15:22;39.13;;;23.23;;
8331;SDS011;4203;48.144;14.118;2023-02-12T01:17:50;40.57;;;24.07;;
8331;SDS011;4203;48.144;14.118;2023-02-12T01:20:19;41.53;;;25.13;;
8331;SDS011;4203;48.144;14.118;2023-02-12T01:22:49;40.50;;;24.10;;
8331;SDS011;4203;48.144;14.118;2023-02-12T01:25:17;44.47;;;24.50;;
8331;SDS011;4203;48.144;14.118;2023-02-12T01:27:44;42.00;;;23.47;;
8331;SDS011;4203;48.144;14.118;2023-02-12T01:30:12;44.93;;;25.40;;
8331;SDS011;4203;48.144;14.118;2023-02-12T01:32:40;44.80;;;26.03;;
8331;SDS011;4203;48.144;14.118;2023-02-12T01:35:08;44.00;;;25.63;;
8331;SDS011;4203;48.144;14.118;2023-02-12T01:37:35;44.33;;;26.40;;
8331;SDS011;4203;48.144;14.118;2023-02-12T01:40:05;49.97;;;27.13;;
8331;SDS011;4203;48.144;14.118;2023-02-12T01:42:34;45.07;;;26.30;;
8331;SDS011;4203;48.144;14.118;2023-02-12T01:48:20;43.87;;;25.73;;
8331;SDS011;4203;48.144;14.118;2023-02-12T01:50:51;45.17;;;27.17;;
8331;SDS011;4203;48.144;14.118;2023-02-12T01:53:19;40.83;;;24.97;;
8331;SDS011;4203;48.144;14.118;2023-02-12T01:55:51;48.17;;;25.97;;
8331;SDS011;4203;48.144;14.118;2023-02-12T01:58:23;48.37;;;27.17;;
8331;SDS011;4203;48.144;14.118;2023-02-12T02:00:52;44.43;;;26.80;;
8331;SDS011;4203;48.144;14.118;2023-02-12T02:03:19;45.60;;;26.47;;
8331;SDS011;4203;48.144;14.118;2023-02-12T02:05:49;43.77;;;26.23;;
8331;SDS011;4203;48.144;14.118;2023-02-12T02:08:21;49.43;;;25.63;;
8331;SDS011;4203;48.144;14.118;2023-02-12T02:10:51;43.07;;;25.10;;
8331;SDS011;4203;48.144;14.118;2023-02-12T02:13:18;42.60;;;25.97;;
8331;SDS011;4203;48.144;14.118;2023-02-12T02:16:16;41.60;;;25.13;;
8331;SDS011;4203;48.144;14.118;2023-02-12T02:18:52;37.43;;;23.70;;
8331;SDS011;4203;48.144;14.118;2023-02-12T02:24:42;41.23;;;25.40;;
8331;SDS011;4203;48.144;14.118;2023-02-12T02:27:31;42.73;;;25.90;;
8331;SDS011;4203;48.144;14.118;2023-02-12T02:30:16;41.17;;;25.13;;
8331;SDS011;4203;48.144;14.118;2023-02-12T02:32:56;41.83;;;24.67;;
8331;SDS011;4203;48.144;14.118;2023-02-12T02:35:38;38.57;;;24.20;;
8331;SDS011;4203;48.144;14.118;2023-02-12T02:38:16;42.17;;;25.10;;
8331;SDS011;4203;48.144;14.118;2023-02-12T02:40:49;41.27;;;24.30;;
8331;SDS011;4203;48.144;14.118;2023-02-12T02:43:22;39.50;;;24.00;;
8331;SDS011;4203;48.144;14.118;2023-02-12T02:45:55;42.70;;;24.43;;
8331;SDS011;4203;48.144;14.118;2023-02-12T02:48:29;38.97;;;24.07;;
8331;SDS011;4203;48.144;14.118;2023-02-12T02:51:02;38.67;;;24.90;;
8331;SDS011;4203;48.144;14.118;2023-02-12T02:53:34;40.83;;;24.03;;
8331;SDS011;4203;48.144;14.118;2023-02-12T02:56:05;40.63;;;24.27;;
8331;SDS011;4203;48.144;14.118;2023-02-12T02:58:35;38.80;;;24.10;;
8331;SDS011;4203;48.144;14.118;2023-02-12T03:01:09;44.10;;;25.80;;
8331;SDS011;4203;48.144;14.118;2023-02-12T03:03:43;37.00;;;24.10;;
8331;SDS011;4203;48.144;14.118;2023-02-12T03:06:14;38.37;;;24.67;;
8331;SDS011;4203;48.144;14.118;2023-02-12T03:08:49;40.20;;;24.50;;
8331;SDS011;4203;48.144;14.118;2023-02-12T03:11:21;42.03;;;25.03;;
8331;SDS011;4203;48.144;14.118;2023-02-12T03:13:52;41.30;;;23.97;;
8331;SDS011;4203;48.144;14.118;2023-02-12T03:16:24;39.80;;;24.93;;
8331;SDS011;4203;48.144;14.118;2023-02-12T03:18:53;42.50;;;24.07;;
8331;SDS011;4203;48.144;14.118;2023-02-12T03:21:27;37.37;;;24.73;;
8331;SDS011;4203;48.144;14.118;2023-02-12T03:23:59;38.57;;;24.47;;
8331;SDS011;4203;48.144;14.118;2023-02-12T03:26:33;39.70;;;24.40;;
8331;SDS011;4203;48.144;14.118;2023-02-12T03:29:05;43.10;;;24.63;;
8331;SDS011;4203;48.144;14.118;2023-02-12T03:31:36;44.40;;;26.30;;
8331;SDS011;4203;48.144;14.118;2023-02-12T03:34:15;38.20;;;23.93;;
8331;SDS011;4203;48.144;14.118;2023-02-12T03:36:48;44.37;;;25.23;;
8331;SDS011;4203;48.144;14.118;2023-02-12T03:39:23;44.60;;;26.13;;
8331;SDS011;4203;48.144;14.118;2023-02-12T03:41:57;44.33;;;24.80;;
8331;SDS011;4203;48.144;14.118;2023-02-12T03:44:33;40.97;;;24.03;;
8331;SDS011;4203;48.144;14.118;2023-02-12T03:47:17;37.07;;;23.23;;
8331;SDS011;4203;48.144;14.118;2023-02-12T03:49:51;43.17;;;26.27;;
8331;SDS011;4203;48.144;14.118;2023-02-12T03:52:22;41.93;;;24.03;;
8331;SDS011;4203;48.144;14.118;2023-02-12T03:54:50;40.80;;;23.77;;
8331;SDS011;4203;48.144;14.118;2023-02-12T03:57:18;38.83;;;23.87;;
8331;SDS011;4203;48.144;14.118;2023-02-12T03:59:48;35.67;;;23.40;;
8331;SDS011;4203;48.144;14.118;2023-02-12T04:02:21;48.30;;;27.17;;
8331;SDS011;4203;48.144;14.118;2023-02-12T04:04:49;41.97;;;25.07;;
8331;SDS011;4203;48.144;14.118;2023-02-12T04:07:17;40.20;;;26.40;;
8331;SDS011;4203;48.144;14.118;2023-02-12T04:09:44;49.37;;;25.53;;
8331;SDS011;4203;48.144;14.118;2023-02-12T04:12:15;43.77;;;24.83;;
8331;SDS011;4203;48.144;14.118;2023-02-12T04:15:02;46.67;;;27.53;;
8331;SDS011;4203;48.144;14.118;2023-02-12T04:17:43;39.60;;;26.03;;
8331;SDS011;4203;48.144;14.118;2023-02-12T04:20:19;48.90;;;28.23;;
8331;SDS011;4203;48.144;14.118;2023-02-12T04:22:53;45.23;;;27.43;;
8331;SDS011;4203;48.144;14.118;2023-02-12T04:25:32;45.97;;;26.27;;
8331;SDS011;4203;48.144;14.118;2023-02-12T04:28:09;50.40;;;28.90;;
8331;SDS011;4203;48.144;14.118;2023-02-12T04:30:41;46.07;;;26.10;;
8331;SDS011;4203;48.144;14.118;2023-02-12T04:33:14;45.33;;;27.27;;
8331;SDS011;4203;48.144;14.118;2023-02-12T04:35:47;46.03;;;27.77;;
8331;SDS011;4203;48.144;14.118;2023-02-12T04:38:18;50.20;;;28.97;;
8331;SDS011;4203;48.144;14.118;2023-02-12T04:40:49;47.87;;;28.07;;
8331;SDS011;4203;48.144;14.118;2023-02-12T04:43:25;52.00;;;29.73;;
8331;SDS011;4203;48.144;14.118;2023-02-12T04:45:53;49.23;;;28.20;;
8331;SDS011;4203;48.144;14.118;2023-02-12T04:48:22;54.30;;;29.27;;
8331;SDS011;4203;48.144;14.118;2023-02-12T04:50:49;48.77;;;28.33;;
8331;SDS011;4203;48.144;14.118;2023-02-12T04:53:16;54.13;;;30.83;;
8331;SDS011;4203;48.144;14.118;2023-02-12T04:55:44;53.53;;;29.73;;
8331;SDS011;4203;48.144;14.118;2023-02-12T04:58:11;51.73;;;28.73;;
8331;SDS011;4203;48.144;14.118;2023-02-12T05:00:39;58.97;;;30.30;;
8331;SDS011;4203;48.144;14.118;2023-02-12T05:03:06;51.67;;;29.30;;
8331;SDS011;4203;48.144;14.118;2023-02-12T05:05:34;52.23;;;29.80;;
8331;SDS011;4203;48.144;14.118;2023-02-12T05:08:02;48.77;;;28.47;;
8331;SDS011;4203;48.144;14.118;2023-02-12T05:10:29;48.77;;;29.37;;
8331;SDS011;4203;48.144;14.118;2023-02-12T05:12:56;48.00;;;28.80;;
8331;SDS011;4203;48.144;14.118;2023-02-12T05:15:23;43.93;;;27.23;;
8331;SDS011;4203;48.144;14.118;2023-02-12T05:17:51;46.10;;;27.47;;
8331;SDS011;4203;48.144;14.118;2023-02-12T05:20:18;45.37;;;28.00;;
8331;SDS011;4203;48.144;14.118;2023-02-12T05:22:47;48.00;;;28.87;;
8331;SDS011;4203;48.144;14.118;2023-02-12T05:25:17;51.50;;;29.90;;
8331;SDS011;4203;48.144;14.118;2023-02-12T05:27:44;51.20;;;29.07;;
8331;SDS011;4203;48.144;14.118;2023-02-12T05:30:12;51.70;;;28.50;;
8331;SDS011;4203;48.144;14.118;2023-02-12T05:32:39;46.93;;;27.57;;
8331;SDS011;4203;48.144;14.118;2023-02-12T05:35:06;50.87;;;29.20;;
8331;SDS011;4203;48.144;14.118;2023-02-12T05:37:34;48.93;;;27.83;;
8331;SDS011;4203;48.144;14.118;2023-02-12T05:40:03;45.90;;;28.17;;
8331;SDS011;4203;48.144;14.118;2023-02-12T05:42:32;51.50;;;29.47;;
8331;SDS011;4203;48.144;14.118;2023-02-12T05:45:00;50.83;;;28.00;;
8331;SDS011;4203;48.144;14.118;2023-02-12T05:47:27;50.23;;;27.23;;
8331;SDS011;4203;48.144;14.118;2023-02-12T05:49:54;45.27;;;26.90;;
8331;SDS011;4203;48.144;14.118;2023-02-12T05:52:21;44.90;;;27.80;;
8331;SDS011;4203;48.144;14.118;2023-02-12T05:54:48;52.30;;;28.13;;
8331;SDS011;4203;48.144;14.118;2023-02-12T05:57:17;52.67;;;28.57;;
8331;SDS011;4203;48.144;14.118;2023-02-12T05:59:44;44.97;;;27.10;;
8331;SDS011;4203;48.144;14.118;2023-02-12T06:02:11;51.57;;;28.87;;
8331;SDS011;4203;48.144;14.118;2023-02-12T06:04:38;47.10;;;27.33;;
8331;SDS011;4203;48.144;14.118;2023-02-12T06:07:06;47.03;;;27.27;;
8331;SDS011;4203;48.144;14.118;2023-02-12T06:09:33;50.80;;;29.00;;
8331;SDS011;4203;48.144;14.118;2023-02-12T06:12:00;49.00;;;27.90;;
8331;SDS011;4203;48.144;14.118;2023-02-12T06:14:29;47.93;;;27.37;;
8331;SDS011;4203;48.144;14.118;2023-02-12T06:16:56;47.30;;;27.83;;
8331;SDS011;4203;48.144;14.118;2023-02-12T06:19:24;47.47;;;27.97;;
8331;SDS011;4203;48.144;14.118;2023-02-12T06:21:51;47.93;;;27.80;;
8331;SDS011;4203;48.144;14.118;2023-02-12T06:24:19;49.43;;;28.83;;
8331;SDS011;4203;48.144;14.118;2023-02-12T06:26:48;46.43;;;28.10;;
8331;SDS011;4203;48.144;14.118;2023-02-12T06:29:15;48.97;;;29.13;;
8331;SDS011;4203;48.144;14.118;2023-02-12T06:31:44;51.23;;;30.30;;
8331;SDS011;4203;48.144;14.118;2023-02-12T06:34:12;48.87;;;29.13;;
8331;SDS011;4203;48.144;14.118;2023-02-12T06:36:42;47.27;;;28.10;;
8331;SDS011;4203;48.144;14.118;2023-02-12T06:39:10;50.93;;;29.23;;
8331;SDS011;4203;48.144;14.118;2023-02-12T06:41:39;47.77;;;29.40;;
8331;SDS011;4203;48.144;14.118;2023-02-12T06:44:06;46.30;;;27.10;;
8331;SDS011;4203;48.144;14.118;2023-02-12T06:46:34;51.63;;;28.43;;
8331;SDS011;4203;48.144;14.118;2023-02-12T06:49:02;49.60;;;28.40;;
8331;SDS011;4203;48.144;14.118;2023-02-12T06:51:30;43.97;;;27.33;;
8331;SDS011;4203;48.144;14.118;2023-02-12T06:53:57;49.43;;;27.87;;
8331;SDS011;4203;48.144;14.118;2023-02-12T06:56:24;45.47;;;27.83;;
8331;SDS011;4203;48.144;14.118;2023-02-12T06:58:53;45.37;;;26.67;;
8331;SDS011;4203;48.144;14.118;2023-02-12T07:01:22;47.27;;;29.40;;
8331;SDS011;4203;48.144;14.118;2023-02-12T07:03:51;42.50;;;28.10;;
8331;SDS011;4203;48.144;14.118;2023-02-12T07:06:22;44.07;;;26.77;;
8331;SDS011;4203;48.144;14.118;2023-02-12T07:08:50;45.50;;;27.67;;
8331;SDS011;4203;48.144;14.118;2023-02-12T07:11:17;44.33;;;27.37;;
8331;SDS011;4203;48.144;14.118;2023-02-12T07:13:48;47.17;;;27.27;;
8331;SDS011;4203;48.144;14.118;2023-02-12T07:16:15;41.37;;;25.13;;
8331;SDS011;4203;48.144;14.118;2023-02-12T07:18:43;42.47;;;26.00;;
8331;SDS011;4203;48.144;14.118;2023-02-12T07:21:11;43.50;;;26.57;;
8331;SDS011;4203;48.144;14.118;2023-02-12T07:23:44;42.07;;;27.37;;
8331;SDS011;4203;48.144;14.118;2023-02-12T07:26:13;46.17;;;28.13;;
8331;SDS011;4203;48.144;14.118;2023-02-12T07:28:41;46.97;;;29.07;;
8331;SDS011;4203;48.144;14.118;2023-02-12T07:31:09;44.50;;;28.83;;
8331;SDS011;4203;48.144;14.118;2023-02-12T07:33:37;43.83;;;28.43;;
8331;SDS011;4203;48.144;14.118;2023-02-12T07:36:06;42.30;;;27.47;;
8331;SDS011;4203;48.144;14.118;2023-02-12T07:38:35;40.60;;;25.73;;
8331;SDS011;4203;48.144;14.118;2023-02-12T07:41:10;41.23;;;24.50;;
8331;SDS011;4203;48.144;14.118;2023-02-12T07:43:38;41.00;;;24.67;;
8331;SDS011;4203;48.144;14.118;2023-02-12T07:46:07;41.60;;;25.37;;
8331;SDS011;4203;48.144;14.118;2023-02-12T07:48:35;40.63;;;24.83;;
8331;SDS011;4203;48.144;14.118;2023-02-12T07:51:04;39.97;;;24.80;;
8331;SDS011;4203;48.144;14.118;2023-02-12T07:53:34;39.57;;;25.53;;
8331;SDS011;4203;48.144;14.118;2023-02-12T07:56:11;39.63;;;24.80;;
8331;SDS011;4203;48.144;14.118;2023-02-12T07:58:40;41.00;;;24.83;;
8331;SDS011;4203;48.144;14.118;2023-02-12T08:01:12;38.07;;;23.60;;
8331;SDS011;4203;48.144;14.118;2023-02-12T08:03:42;38.00;;;24.00;;
8331;SDS011;4203;48.144;14.118;2023-02-12T08:06:11;39.73;;;23.30;;
8331;SDS011;4203;48.144;14.118;2023-02-12T08:08:41;39.30;;;24.80;;
8331;SDS011;4203;48.144;14.118;2023-02-12T08:11:12;40.20;;;24.27;;
8331;SDS011;4203;48.144;14.118;2023-02-12T08:13:40;38.70;;;24.27;;
8331;SDS011;4203;48.144;14.118;2023-02-12T08:16:09;39.70;;;23.17;;
8331;SDS011;4203;48.144;14.118;2023-02-12T08:18:37;41.33;;;23.53;;
8331;SDS011;4203;48.144;14.118;2023-02-12T08:21:05;40.23;;;23.23;;
8331;SDS011;4203;48.144;14.118;2023-02-12T08:23:34;41.47;;;23.37;;
8331;SDS011;4203;48.144;14.118;2023-02-12T08:26:06;41.80;;;23.97;;
8331;SDS011;4203;48.144;14.118;2023-02-12T08:28:35;39.23;;;23.50;;
8331;SDS011;4203;48.144;14.118;2023-02-12T08:31:05;39.97;;;24.57;;
8331;SDS011;4203;48.144;14.118;2023-02-12T08:33:34;37.23;;;24.90;;
8331;SDS011;4203;48.144;14.118;2023-02-12T08:36:02;37.30;;;22.83;;
8331;SDS011;4203;48.144;14.118;2023-02-12T08:38:31;37.93;;;24.43;;
8331;SDS011;4203;48.144;14.118;2023-02-12T08:40:59;37.13;;;22.27;;
8331;SDS011;4203;48.144;14.118;2023-02-12T08:43:28;38.37;;;22.87;;
8331;SDS011;4203;48.144;14.118;2023-02-12T08:46:01;35.17;;;22.80;;
8331;SDS011;4203;48.144;14.118;2023-02-12T08:48:30;34.77;;;22.80;;
8331;SDS011;4203;48.144;14.118;2023-02-12T08:51:02;39.33;;;22.13;;
8331;SDS011;4203;48.144;14.118;2023-02-12T08:53:31;39.27;;;23.63;;
8331;SDS011;4203;48.144;14.118;2023-02-12T08:55:58;38.67;;;22.50;;
8331;SDS011;4203;48.144;14.118;2023-02-12T08:58:25;40.30;;;22.63;;
8331;SDS011;4203;48.144;14.118;2023-02-12T09:00:52;39.97;;;23.67;;
8331;SDS011;4203;48.144;14.118;2023-02-12T09:03:21;42.50;;;24.47;;
8331;SDS011;4203;48.144;14.118;2023-02-12T09:05:48;40.63;;;22.67;;
8331;SDS011;4203;48.144;14.118;2023-02-12T09:08:16;46.20;;;23.90;;
8331;SDS011;4203;48.144;14.118;2023-02-12T09:10:43;46.57;;;24.33;;
8331;SDS011;4203;48.144;14.118;2023-02-12T09:13:11;40.73;;;22.80;;
8331;SDS011;4203;48.144;14.118;2023-02-12T09:15:39;44.50;;;24.50;;
8331;SDS011;4203;48.144;14.118;2023-02-12T09:18:08;47.20;;;24.33;;
8331;SDS011;4203;48.144;14.118;2023-02-12T09:20:38;44.33;;;23.20;;
8331;SDS011;4203;48.144;14.118;2023-02-12T09:23:08;44.43;;;24.63;;
8331;SDS011;4203;48.144;14.118;2023-02-12T09:25:38;46.70;;;23.03;;
8331;SDS011;4203;48.144;14.118;2023-02-12T09:28:05;42.60;;;23.33;;
8331;SDS011;4203;48.144;14.118;2023-02-12T09:30:33;41.07;;;23.33;;
8331;SDS011;4203;48.144;14.118;2023-02-12T09:33:01;43.40;;;23.10;;
8331;SDS011;4203;48.144;14.118;2023-02-12T09:35:29;38.53;;;23.50;;
8331;SDS011;4203;48.144;14.118;2023-02-12T09:38:00;37.20;;;22.40;;
8331;SDS011;4203;48.144;14.118;2023-02-12T09:40:30;38.67;;;23.10;;
8331;SDS011;4203;48.144;14.118;2023-02-12T09:43:04;40.47;;;23.20;;
8331;SDS011;4203;48.144;14.118;2023-02-12T09:45:37;36.17;;;21.33;;
8331;SDS011;4203;48.144;14.118;2023-02-12T09:48:17;37.80;;;21.57;;
8331;SDS011;4203;48.144;14.118;2023-02-12T09:51:02;38.27;;;22.03;;
8331;SDS011;4203;48.144;14.118;2023-02-12T09:53:34;34.40;;;21.97;;
8331;SDS011;4203;48.144;14.118;2023-02-12T09:56:07;37.17;;;22.17;;
8331;SDS011;4203;48.144;14.118;2023-02-12T09:58:40;37.17;;;21.97;;
8331;SDS011;4203;48.144;14.118;2023-02-12T10:01:11;40.70;;;24.70;;
8331;SDS011;4203;48.144;14.118;2023-02-12T10:03:41;43.43;;;23.80;;
8331;SDS011;4203;48.144;14.118;2023-02-12T10:06:12;52.20;;;29.00;;
8331;SDS011;4203;48.144;14.118;2023-02-12T10:08:56;45.63;;;26.57;;
8331;SDS011;4203;48.144;14.118;2023-02-12T10:11:50;39.97;;;24.90;;
8331;SDS011;4203;48.144;14.118;2023-02-12T10:17:17;51.17;;;30.07;;
8331;SDS011;4203;48.144;14.118;2023-02-12T10:20:04;42.60;;;25.90;;
8331;SDS011;4203;48.144;14.118;2023-02-12T10:22:46;39.63;;;24.33;;
8331;SDS011;4203;48.144;14.118;2023-02-12T10:25:25;38.90;;;22.83;;
8331;SDS011;4203;48.144;14.118;2023-02-12T10:28:01;40.80;;;22.73;;
8331;SDS011;4203;48.144;14.118;2023-02-12T10:30:36;36.93;;;21.90;;
8331;SDS011;4203;48.144;14.118;2023-02-12T10:33:11;35.10;;;20.50;;
8331;SDS011;4203;48.144;14.118;2023-02-12T10:35:42;35.17;;;21.27;;
8331;SDS011;4203;48.144;14.118;2023-02-12T10:38:13;39.13;;;21.90;;
8331;SDS011;4203;48.144;14.118;2023-02-12T10:40:47;36.30;;;21.50;;
8331;SDS011;4203;48.144;14.118;2023-02-12T10:43:15;32.93;;;20.33;;
8331;SDS011;4203;48.144;14.118;2023-02-12T10:45:43;36.20;;;20.40;;
8331;SDS011;4203;48.144;14.118;2023-02-12T10:48:12;37.03;;;22.87;;
8331;SDS011;4203;48.144;14.118;2023-02-12T10:50:45;35.07;;;21.57;;
8331;SDS011;4203;48.144;14.118;2023-02-12T10:53:19;38.30;;;22.17;;
8331;SDS011;4203;48.144;14.118;2023-02-12T10:55:49;38.60;;;23.10;;
8331;SDS011;4203;48.144;14.118;2023-02-12T10:58:39;32.87;;;20.67;;
8331;SDS011;4203;48.144;14.118;2023-02-12T11:01:13;36.70;;;21.80;;
8331;SDS011;4203;48.144;14.118;2023-02-12T11:03:42;37.50;;;20.30;;
8331;SDS011;4203;48.144;14.118;2023-02-12T11:06:14;33.07;;;20.10;;
8331;SDS011;4203;48.144;14.118;2023-02-12T11:08:43;32.67;;;19.80;;
8331;SDS011;4203;48.144;14.118;2023-02-12T11:11:12;33.47;;;20.30;;
8331;SDS011;4203;48.144;14.118;2023-02-12T11:13:45;29.73;;;19.40;;
8331;SDS011;4203;48.144;14.118;2023-02-12T11:16:25;35.03;;;21.03;;
8331;SDS011;4203;48.144;14.118;2023-02-12T11:18:56;31.43;;;19.67;;
8331;SDS011;4203;48.144;14.118;2023-02-12T11:21:25;34.47;;;19.90;;
8331;SDS011;4203;48.144;14.118;2023-02-12T11:23:53;35.33;;;20.40;;
8331;SDS011;4203;48.144;14.118;2023-02-12T11:26:25;34.43;;;21.17;;
8331;SDS011;4203;48.144;14.118;2023-02-12T11:28:55;38.47;;;21.67;;
8331;SDS011;4203;48.144;14.118;2023-02-12T11:31:24;31.57;;;19.80;;
8331;SDS011;4203;48.144;14.118;2023-02-12T11:34:05;32.60;;;20.23;;
8331;SDS011;4203;48.144;14.118;2023-02-12T11:36:35;35.93;;;21.90;;
8331;SDS011;4203;48.144;14.118;2023-02-12T11:39:10;34.10;;;21.63;;
8331;SDS011;4203;48.144;14.118;2023-02-12T11:41:48;35.70;;;21.30;;
8331;SDS011;4203;48.144;14.118;2023-02-12T11:44:18;31.17;;;19.43;;
8331;SDS011;4203;48.144;14.118;2023-02-12T11:46:46;31.80;;;20.83;;
8331;SDS011;4203;48.144;14.118;2023-02-12T11:49:17;30.43;;;19.57;;
8331;SDS011;4203;48.144;14.118;2023-02-12T11:51:47;31.30;;;20.00;;
8331;SDS011;4203;48.144;14.118;2023-02-12T11:54:17;34.20;;;19.93;;
8331;SDS011;4203;48.144;14.118;2023-02-12T11:56:49;29.30;;;18.67;;
8331;SDS011;4203;48.144;14.118;2023-02-12T11:59:20;28.17;;;18.57;;
8331;SDS011;4203;48.144;14.118;2023-02-12T12:02:02;28.87;;;18.37;;
8331;SDS011;4203;48.144;14.118;2023-02-12T12:04:39;31.83;;;20.07;;
8331;SDS011;4203;48.144;14.118;2023-02-12T12:07:09;31.50;;;19.70;;
8331;SDS011;4203;48.144;14.118;2023-02-12T12:09:43;29.70;;;19.43;;
8331;SDS011;4203;48.144;14.118;2023-02-12T12:12:16;28.53;;;18.57;;
8331;SDS011;4203;48.144;14.118;2023-02-12T12:14:48;30.93;;;18.47;;
8331;SDS011;4203;48.144;14.118;2023-02-12T12:17:35;29.33;;;18.83;;
8331;SDS011;4203;48.144;14.118;2023-02-12T12:20:27;27.73;;;18.03;;
8331;SDS011;4203;48.144;14.118;2023-02-12T12:22:59;30.00;;;19.27;;
8331;SDS011;4203;48.144;14.118;2023-02-12T12:25:34;30.90;;;19.50;;
8331;SDS011;4203;48.144;14.118;2023-02-12T12:28:10;31.40;;;19.77;;
8331;SDS011;4203;48.144;14.118;2023-02-12T12:30:56;28.97;;;18.93;;
8331;SDS011;4203;48.144;14.118;2023-02-12T12:33:31;28.90;;;18.83;;
8331;SDS011;4203;48.144;14.118;2023-02-12T12:36:09;32.40;;;20.17;;
8331;SDS011;4203;48.144;14.118;2023-02-12T12:39:00;27.67;;;17.83;;
8331;SDS011;4203;48.144;14.118;2023-02-12T12:41:36;30.03;;;18.30;;
8331;SDS011;4203;48.144;14.118;2023-02-12T12:44:19;29.90;;;18.90;;
8331;SDS011;4203;48.144;14.118;2023-02-12T12:47:01;29.63;;;18.50;;
8331;SDS011;4203;48.144;14.118;2023-02-12T12:49:40;29.47;;;18.40;;
8331;SDS011;4203;48.144;14.118;2023-02-12T12:52:39;28.43;;;18.30;;
8331;SDS011;4203;48.144;14.118;2023-02-12T12:55:33;24.50;;;17.17;;
8331;SDS011;4203;48.144;14.118;2023-02-12T12:58:12;24.45;;;16.65;;
8331;SDS011;4203;48.144;14.118;2023-02-12T13:00:52;25.27;;;16.43;;
8331;SDS011;4203;48.144;14.118;2023-02-12T13:03:42;23.80;;;16.20;;
8331;SDS011;4203;48.144;14.118;2023-02-12T13:06:44;21.77;;;15.83;;
8331;SDS011;4203;48.144;14.118;2023-02-12T13:15:05;24.87;;;16.73;;
8331;SDS011;4203;48.144;14.118;2023-02-12T13:17:45;23.65;;;16.73;;
8331;SDS011;4203;48.144;14.118;2023-02-12T13:20:19;21.80;;;15.00;;
8331;SDS011;4203;48.144;14.118;2023-02-12T13:22:54;24.27;;;16.10;;
8331;SDS011;4203;48.144;14.118;2023-02-12T13:25:26;21.88;;;16.13;;
8331;SDS011;4203;48.144;14.118;2023-02-12T13:27:59;25.20;;;17.13;;
8331;SDS011;4203;48.144;14.118;2023-02-12T13:30:30;25.93;;;17.60;;
8331;SDS011;4203;48.144;14.118;2023-02-12T13:33:09;26.83;;;18.67;;
8331;SDS011;4203;48.144;14.118;2023-02-12T13:35:40;25.47;;;16.93;;
8331;SDS011;4203;48.144;14.118;2023-02-12T13:38:14;23.73;;;16.50;;
8331;SDS011;4203;48.144;14.118;2023-02-12T13:40:46;25.73;;;17.33;;
8331;SDS011;4203;48.144;14.118;2023-02-12T13:43:28;26.27;;;16.97;;
8331;SDS011;4203;48.144;14.118;2023-02-12T13:46:22;26.17;;;16.23;;
8331;SDS011;4203;48.144;14.118;2023-02-12T13:48:59;22.13;;;16.13;;
8331;SDS011;4203;48.144;14.118;2023-02-12T13:51:40;22.60;;;16.50;;
8331;SDS011;4203;48.144;14.118;2023-02-12T13:54:12;23.83;;;15.93;;
8331;SDS011;4203;48.144;14.118;2023-02-12T13:56:45;23.50;;;15.97;;
8331;SDS011;4203;48.144;14.118;2023-02-12T14:02:39;21.20;;;14.85;;
8331;SDS011;4203;48.144;14.118;2023-02-12T14:05:16;21.00;;;15.32;;
8331;SDS011;4203;48.144;14.118;2023-02-12T14:07:54;23.88;;;15.85;;
8331;SDS011;4203;48.144;14.118;2023-02-12T14:10:25;21.10;;;15.20;;
8331;SDS011;4203;48.144;14.118;2023-02-12T14:12:55;20.90;;;15.48;;
8331;SDS011;4203;48.144;14.118;2023-02-12T14:15:35;21.02;;;15.20;;
8331;SDS011;4203;48.144;14.118;2023-02-12T14:18:11;20.73;;;14.93;;
8331;SDS011;4203;48.144;14.118;2023-02-12T14:20:56;17.70;;;14.30;;
8331;SDS011;4203;48.144;14.118;2023-02-12T14:27:22;20.52;;;14.85;;
8331;SDS011;4203;48.144;14.118;2023-02-12T14:30:20;21.42;;;15.45;;
8331;SDS011;4203;48.144;14.118;2023-02-12T14:33:08;19.73;;;14.80;;
8331;SDS011;4203;48.144;14.118;2023-02-12T14:35:42;18.85;;;14.43;;
8331;SDS011;4203;48.144;14.118;2023-02-12T14:41:35;18.58;;;13.73;;
8331;SDS011;4203;48.144;14.118;2023-02-12T14:50:14;21.83;;;15.70;;
8331;SDS011;4203;48.144;14.118;2023-02-12T14:52:48;22.92;;;15.85;;
8331;SDS011;4203;48.144;14.118;2023-02-12T14:55:23;20.23;;;14.88;;
8331;SDS011;4203;48.144;14.118;2023-02-12T14:58:01;20.15;;;15.75;;
8331;SDS011;4203;48.144;14.118;2023-02-12T15:00:32;21.55;;;16.25;;
8331;SDS011;4203;48.144;14.118;2023-02-12T15:03:06;22.98;;;16.00;;
8331;SDS011;4203;48.144;14.118;2023-02-12T15:05:48;21.48;;;16.25;;
8331;SDS011;4203;48.144;14.118;2023-02-12T15:08:31;27.10;;;18.60;;
8331;SDS011;4203;48.144;14.118;2023-02-12T15:11:13;23.55;;;17.10;;
8331;SDS011;4203;48.144;14.118;2023-02-12T15:13:52;24.77;;;17.30;;
8331;SDS011;4203;48.144;14.118;2023-02-12T15:16:30;24.75;;;17.58;;
8331;SDS011;4203;48.144;14.118;2023-02-12T15:19:01;24.48;;;17.05;;
8331;SDS011;4203;48.144;14.118;2023-02-12T15:21:39;24.80;;;16.90;;
8331;SDS011;4203;48.144;14.118;2023-02-12T15:24:08;22.48;;;17.00;;
8331;SDS011;4203;48.144;14.118;2023-02-12T15:26:38;25.42;;;17.67;;
8331;SDS011;4203;48.144;14.118;2023-02-12T15:29:14;25.65;;;17.92;;
8331;SDS011;4203;48.144;14.118;2023-02-12T15:31:49;23.73;;;16.75;;
8331;SDS011;4203;48.144;14.118;2023-02-12T15:34:19;23.33;;;16.13;;